sensor_id;sensor_type;location;lat;lon;timestamp;P1;durP1;ratioP1;P2;durP2;ratioP2
54171;SDS011;40076;52.354;4.970;2023-06-10T00:00:45;8.63;;;5.55;;
54171;SDS011;40076;52.354;4.970;2023-06-10T00:03:11;9.48;;;5.18;;
54171;SDS011;40076;52.354;4.970;2023-06-10T00:05:37;8.88;;;5.13;;
54171;SDS011;40076;52.354;4.970;2023-06-10T00:08:03;10.43;;;5.18;;
54171;SDS011;40076;52.354;4.970;2023-06-10T00:10:35;10.20;;;5.45;;
54171;SDS011;40076;52.354;4.970;2023-06-10T00:13:03;10.18;;;4.95;;
54171;SDS011;40076;52.354;4.970;2023-06-10T00:15:30;9.38;;;5.00;;
54171;SDS011;40076;52.354;4.970;2023-06-10T00:17:56;9.60;;;4.65;;
54171;SDS011;40076;52.354;4.970;2023-06-10T00:20:21;7.32;;;4.70;;
54171;SDS011;40076;52.354;4.970;2023-06-10T00:22:49;11.40;;;5.28;;
54171;SDS011;40076;52.354;4.970;2023-06-10T00:25:14;11.35;;;5.18;;
54171;SDS011;40076;52.354;4.970;2023-06-10T00:27:40;6.82;;;4.55;;
54171;SDS011;40076;52.354;4.970;2023-06-10T00:30:05;8.88;;;5.03;;
54171;SDS011;40076;52.354;4.970;2023-06-10T00:32:34;9.15;;;4.93;;
54171;SDS011;40076;52.354;4.970;2023-06-10T00:35:01;9.98;;;5.22;;
54171;SDS011;40076;52.354;4.970;2023-06-10T00:37:28;10.30;;;5.13;;
54171;SDS011;40076;52.354;4.970;2023-06-10T00:39:54;9.38;;;4.95;;
54171;SDS011;40076;52.354;4.970;2023-06-10T00:42:19;9.15;;;4.53;;
54171;SDS011;40076;52.354;4.970;2023-06-10T00:44:45;10.95;;;4.22;;
54171;SDS011;40076;52.354;4.970;2023-06-10T00:47:10;8.43;;;4.78;;
54171;SDS011;40076;52.354;4.970;2023-06-10T00:49:36;8.88;;;5.00;;
54171;SDS011;40076;52.354;4.970;2023-06-10T00:52:02;11.55;;;5.07;;
54171;SDS011;40076;52.354;4.970;2023-06-10T00:54:29;12.13;;;4.88;;
54171;SDS011;40076;52.354;4.970;2023-06-10T00:56:55;11.02;;;5.30;;
54171;SDS011;40076;52.354;4.970;2023-06-10T00:59:21;10.02;;;4.45;;
54171;SDS011;40076;52.354;4.970;2023-06-10T01:01:48;10.32;;;5.05;;
54171;SDS011;40076;52.354;4.970;2023-06-10T01:04:14;7.53;;;4.47;;
54171;SDS011;40076;52.354;4.970;2023-06-10T01:09:42;7.90;;;4.63;;
54171;SDS011;40076;52.354;4.970;2023-06-10T01:12:29;11.73;;;4.97;;
54171;SDS011;40076;52.354;4.970;2023-06-10T01:14:59;9.60;;;4.95;;
54171;SDS011;40076;52.354;4.970;2023-06-10T01:17:26;9.40;;;5.07;;
54171;SDS011;40076;52.354;4.970;2023-06-10T01:19:55;8.63;;;5.00;;
54171;SDS011;40076;52.354;4.970;2023-06-10T01:22:24;9.43;;;5.38;;
54171;SDS011;40076;52.354;4.970;2023-06-10T01:24:51;10.32;;;5.15;;
54171;SDS011;40076;52.354;4.970;2023-06-10T01:27:17;11.55;;;5.30;;
54171;SDS011;40076;52.354;4.970;2023-06-10T01:29:49;8.27;;;4.43;;
54171;SDS011;40076;52.354;4.970;2023-06-10T01:32:23;9.88;;;5.10;;
54171;SDS011;40076;52.354;4.970;2023-06-10T01:35:05;9.30;;;4.88;;
54171;SDS011;40076;52.354;4.970;2023-06-10T01:37:33;9.13;;;4.97;;
54171;SDS011;40076;52.354;4.970;2023-06-10T01:39:59;7.25;;;4.97;;
54171;SDS011;40076;52.354;4.970;2023-06-10T01:42:25;8.23;;;5.47;;
54171;SDS011;40076;52.354;4.970;2023-06-10T01:44:51;8.88;;;4.85;;
54171;SDS011;40076;52.354;4.970;2023-06-10T01:47:16;9.57;;;4.65;;
54171;SDS011;40076;52.354;4.970;2023-06-10T01:49:42;9.90;;;5.60;;
54171;SDS011;40076;52.354;4.970;2023-06-10T01:52:08;10.20;;;5.18;;
54171;SDS011;40076;52.354;4.970;2023-06-10T01:54:33;8.75;;;5.22;;
54171;SDS011;40076;52.354;4.970;2023-06-10T01:57:00;9.10;;;5.35;;
54171;SDS011;40076;52.354;4.970;2023-06-10T01:59:26;9.95;;;5.53;;
54171;SDS011;40076;52.354;4.970;2023-06-10T02:01:51;11.20;;;5.38;;
54171;SDS011;40076;52.354;4.970;2023-06-10T02:04:17;12.45;;;5.53;;
54171;SDS011;40076;52.354;4.970;2023-06-10T02:06:42;9.88;;;5.03;;
54171;SDS011;40076;52.354;4.970;2023-06-10T02:09:07;12.25;;;6.60;;
54171;SDS011;40076;52.354;4.970;2023-06-10T02:11:33;10.45;;;5.53;;
54171;SDS011;40076;52.354;4.970;2023-06-10T02:13:58;11.18;;;5.65;;
54171;SDS011;40076;52.354;4.970;2023-06-10T02:16:23;9.82;;;5.80;;
54171;SDS011;40076;52.354;4.970;2023-06-10T02:18:49;12.13;;;5.55;;
54171;SDS011;40076;52.354;4.970;2023-06-10T02:21:14;11.07;;;6.07;;
54171;SDS011;40076;52.354;4.970;2023-06-10T02:23:39;8.98;;;5.00;;
54171;SDS011;40076;52.354;4.970;2023-06-10T02:26:05;9.27;;;5.15;;
54171;SDS011;40076;52.354;4.970;2023-06-10T02:28:30;10.38;;;5.72;;
54171;SDS011;40076;52.354;4.970;2023-06-10T02:30:56;10.07;;;5.57;;
54171;SDS011;40076;52.354;4.970;2023-06-10T02:33:22;10.90;;;5.60;;
54171;SDS011;40076;52.354;4.970;2023-06-10T02:35:48;10.98;;;5.35;;
54171;SDS011;40076;52.354;4.970;2023-06-10T02:38:13;10.15;;;6.20;;
54171;SDS011;40076;52.354;4.970;2023-06-10T02:40:38;8.32;;;5.38;;
54171;SDS011;40076;52.354;4.970;2023-06-10T02:43:04;11.00;;;5.40;;
54171;SDS011;40076;52.354;4.970;2023-06-10T02:45:29;9.68;;;5.90;;
54171;SDS011;40076;52.354;4.970;2023-06-10T02:47:54;12.35;;;5.72;;
54171;SDS011;40076;52.354;4.970;2023-06-10T02:50:20;9.52;;;5.70;;
54171;SDS011;40076;52.354;4.970;2023-06-10T02:52:45;8.77;;;5.82;;
54171;SDS011;40076;52.354;4.970;2023-06-10T02:55:10;9.63;;;5.63;;
54171;SDS011;40076;52.354;4.970;2023-06-10T02:57:36;11.20;;;6.57;;
54171;SDS011;40076;52.354;4.970;2023-06-10T03:00:01;9.10;;;5.35;;
54171;SDS011;40076;52.354;4.970;2023-06-10T03:02:29;8.43;;;5.80;;
54171;SDS011;40076;52.354;4.970;2023-06-10T03:04:56;10.88;;;5.80;;
54171;SDS011;40076;52.354;4.970;2023-06-10T03:07:22;14.75;;;6.45;;
54171;SDS011;40076;52.354;4.970;2023-06-10T03:09:48;10.95;;;5.45;;
54171;SDS011;40076;52.354;4.970;2023-06-10T03:12:13;11.30;;;5.93;;
54171;SDS011;40076;52.354;4.970;2023-06-10T03:14:39;9.90;;;5.47;;
54171;SDS011;40076;52.354;4.970;2023-06-10T03:17:04;7.72;;;4.88;;
54171;SDS011;40076;52.354;4.970;2023-06-10T03:19:30;10.57;;;6.20;;
54171;SDS011;40076;52.354;4.970;2023-06-10T03:22:11;9.82;;;5.88;;
54171;SDS011;40076;52.354;4.970;2023-06-10T03:24:38;11.90;;;5.65;;
54171;SDS011;40076;52.354;4.970;2023-06-10T03:27:06;11.55;;;5.75;;
54171;SDS011;40076;52.354;4.970;2023-06-10T03:29:32;10.27;;;5.85;;
54171;SDS011;40076;52.354;4.970;2023-06-10T03:31:57;13.45;;;5.70;;
54171;SDS011;40076;52.354;4.970;2023-06-10T03:34:22;10.02;;;6.15;;
54171;SDS011;40076;52.354;4.970;2023-06-10T03:36:48;11.27;;;5.93;;
54171;SDS011;40076;52.354;4.970;2023-06-10T03:39:13;10.15;;;5.72;;
54171;SDS011;40076;52.354;4.970;2023-06-10T03:41:39;11.35;;;6.18;;
54171;SDS011;40076;52.354;4.970;2023-06-10T03:44:04;10.63;;;5.55;;
54171;SDS011;40076;52.354;4.970;2023-06-10T03:46:29;9.80;;;5.80;;
54171;SDS011;40076;52.354;4.970;2023-06-10T03:48:54;10.60;;;5.53;;
54171;SDS011;40076;52.354;4.970;2023-06-10T03:51:20;12.18;;;6.35;;
54171;SDS011;40076;52.354;4.970;2023-06-10T03:53:46;11.52;;;6.28;;
54171;SDS011;40076;52.354;4.970;2023-06-10T03:56:11;9.10;;;5.72;;
54171;SDS011;40076;52.354;4.970;2023-06-10T03:58:36;13.60;;;6.40;;
54171;SDS011;40076;52.354;4.970;2023-06-10T04:01:02;11.00;;;5.90;;
54171;SDS011;40076;52.354;4.970;2023-06-10T04:03:27;14.82;;;6.50;;
54171;SDS011;40076;52.354;4.970;2023-06-10T04:05:53;9.52;;;5.78;;
54171;SDS011;40076;52.354;4.970;2023-06-10T04:08:19;9.88;;;6.03;;
54171;SDS011;40076;52.354;4.970;2023-06-10T04:10:45;11.73;;;5.57;;
54171;SDS011;40076;52.354;4.970;2023-06-10T04:13:10;12.32;;;6.63;;
54171;SDS011;40076;52.354;4.970;2023-06-10T04:15:36;15.20;;;6.53;;
54171;SDS011;40076;52.354;4.970;2023-06-10T04:18:04;10.93;;;5.97;;
54171;SDS011;40076;52.354;4.970;2023-06-10T04:20:30;14.20;;;6.43;;
54171;SDS011;40076;52.354;4.970;2023-06-10T04:22:55;11.98;;;6.00;;
54171;SDS011;40076;52.354;4.970;2023-06-10T04:25:20;9.05;;;6.05;;
54171;SDS011;40076;52.354;4.970;2023-06-10T04:27:45;10.05;;;5.90;;
54171;SDS011;40076;52.354;4.970;2023-06-10T04:30:11;12.73;;;6.43;;
54171;SDS011;40076;52.354;4.970;2023-06-10T04:32:37;9.15;;;6.00;;
54171;SDS011;40076;52.354;4.970;2023-06-10T04:35:02;10.70;;;5.88;;
54171;SDS011;40076;52.354;4.970;2023-06-10T04:37:27;9.80;;;5.75;;
54171;SDS011;40076;52.354;4.970;2023-06-10T04:39:54;13.82;;;6.25;;
54171;SDS011;40076;52.354;4.970;2023-06-10T04:42:19;9.35;;;5.50;;
54171;SDS011;40076;52.354;4.970;2023-06-10T04:44:44;9.82;;;5.38;;
54171;SDS011;40076;52.354;4.970;2023-06-10T04:47:10;13.90;;;6.18;;
54171;SDS011;40076;52.354;4.970;2023-06-10T04:49:35;15.05;;;6.70;;
54171;SDS011;40076;52.354;4.970;2023-06-10T04:52:00;10.48;;;5.63;;
54171;SDS011;40076;52.354;4.970;2023-06-10T04:54:26;12.73;;;6.13;;
54171;SDS011;40076;52.354;4.970;2023-06-10T04:56:53;9.07;;;5.70;;
54171;SDS011;40076;52.354;4.970;2023-06-10T04:59:19;9.38;;;5.90;;
54171;SDS011;40076;52.354;4.970;2023-06-10T05:01:44;8.65;;;5.53;;
54171;SDS011;40076;52.354;4.970;2023-06-10T05:04:09;14.45;;;5.97;;
54171;SDS011;40076;52.354;4.970;2023-06-10T05:06:35;10.50;;;5.72;;
54171;SDS011;40076;52.354;4.970;2023-06-10T05:09:01;9.82;;;6.10;;
54171;SDS011;40076;52.354;4.970;2023-06-10T05:11:26;9.00;;;5.38;;
54171;SDS011;40076;52.354;4.970;2023-06-10T05:13:52;12.88;;;6.53;;
54171;SDS011;40076;52.354;4.970;2023-06-10T05:16:17;12.63;;;5.68;;
54171;SDS011;40076;52.354;4.970;2023-06-10T05:18:42;11.48;;;6.13;;
54171;SDS011;40076;52.354;4.970;2023-06-10T05:21:08;9.23;;;6.15;;
54171;SDS011;40076;52.354;4.970;2023-06-10T05:23:34;12.90;;;5.90;;
54171;SDS011;40076;52.354;4.970;2023-06-10T05:25:59;9.38;;;5.10;;
54171;SDS011;40076;52.354;4.970;2023-06-10T05:28:25;10.73;;;5.95;;
54171;SDS011;40076;52.354;4.970;2023-06-10T05:30:50;10.25;;;5.97;;
54171;SDS011;40076;52.354;4.970;2023-06-10T05:33:16;11.95;;;6.72;;
54171;SDS011;40076;52.354;4.970;2023-06-10T05:35:41;10.75;;;6.40;;
54171;SDS011;40076;52.354;4.970;2023-06-10T05:38:06;10.20;;;5.88;;
54171;SDS011;40076;52.354;4.970;2023-06-10T05:40:32;9.88;;;6.72;;
54171;SDS011;40076;52.354;4.970;2023-06-10T05:42:57;9.18;;;6.10;;
54171;SDS011;40076;52.354;4.970;2023-06-10T05:45:22;10.40;;;6.93;;
54171;SDS011;40076;52.354;4.970;2023-06-10T05:47:48;13.65;;;6.53;;
54171;SDS011;40076;52.354;4.970;2023-06-10T05:50:13;9.82;;;6.68;;
54171;SDS011;40076;52.354;4.970;2023-06-10T05:52:38;14.55;;;7.18;;
54171;SDS011;40076;52.354;4.970;2023-06-10T05:55:06;10.43;;;6.75;;
54171;SDS011;40076;52.354;4.970;2023-06-10T05:57:32;13.05;;;6.65;;
54171;SDS011;40076;52.354;4.970;2023-06-10T05:59:58;10.57;;;6.88;;
54171;SDS011;40076;52.354;4.970;2023-06-10T06:02:23;12.13;;;6.70;;
54171;SDS011;40076;52.354;4.970;2023-06-10T06:04:49;10.73;;;6.78;;
54171;SDS011;40076;52.354;4.970;2023-06-10T06:07:14;10.73;;;6.72;;
54171;SDS011;40076;52.354;4.970;2023-06-10T06:09:40;10.73;;;6.43;;
54171;SDS011;40076;52.354;4.970;2023-06-10T06:12:05;13.10;;;6.45;;
54171;SDS011;40076;52.354;4.970;2023-06-10T06:14:32;12.52;;;6.80;;
54171;SDS011;40076;52.354;4.970;2023-06-10T06:16:57;12.65;;;6.65;;
54171;SDS011;40076;52.354;4.970;2023-06-10T06:19:23;12.10;;;6.72;;
54171;SDS011;40076;52.354;4.970;2023-06-10T06:21:48;9.43;;;6.25;;
54171;SDS011;40076;52.354;4.970;2023-06-10T06:24:13;11.02;;;6.88;;
54171;SDS011;40076;52.354;4.970;2023-06-10T06:26:40;11.65;;;7.10;;
54171;SDS011;40076;52.354;4.970;2023-06-10T06:29:05;10.60;;;6.18;;
54171;SDS011;40076;52.354;4.970;2023-06-10T06:31:31;14.00;;;6.53;;
54171;SDS011;40076;52.354;4.970;2023-06-10T06:33:56;12.98;;;7.10;;
54171;SDS011;40076;52.354;4.970;2023-06-10T06:36:21;13.43;;;7.93;;
54171;SDS011;40076;52.354;4.970;2023-06-10T06:38:47;10.23;;;6.28;;
54171;SDS011;40076;52.354;4.970;2023-06-10T06:41:12;11.23;;;6.50;;
54171;SDS011;40076;52.354;4.970;2023-06-10T06:43:37;12.95;;;7.93;;
54171;SDS011;40076;52.354;4.970;2023-06-10T06:46:02;10.00;;;6.45;;
54171;SDS011;40076;52.354;4.970;2023-06-10T06:48:28;8.82;;;6.32;;
54171;SDS011;40076;52.354;4.970;2023-06-10T06:50:53;10.65;;;6.85;;
54171;SDS011;40076;52.354;4.970;2023-06-10T06:53:21;10.73;;;6.78;;
54171;SDS011;40076;52.354;4.970;2023-06-10T06:55:46;11.52;;;6.80;;
54171;SDS011;40076;52.354;4.970;2023-06-10T06:58:11;16.90;;;7.10;;
54171;SDS011;40076;52.354;4.970;2023-06-10T07:00:37;10.57;;;6.80;;
54171;SDS011;40076;52.354;4.970;2023-06-10T07:03:02;11.55;;;7.15;;
54171;SDS011;40076;52.354;4.970;2023-06-10T07:05:27;13.10;;;6.95;;
54171;SDS011;40076;52.354;4.970;2023-06-10T07:07:53;12.85;;;7.45;;
54171;SDS011;40076;52.354;4.970;2023-06-10T07:10:23;13.48;;;7.05;;
54171;SDS011;40076;52.354;4.970;2023-06-10T07:12:50;9.90;;;6.97;;
54171;SDS011;40076;52.354;4.970;2023-06-10T07:15:15;11.32;;;6.28;;
54171;SDS011;40076;52.354;4.970;2023-06-10T07:17:41;10.20;;;6.88;;
54171;SDS011;40076;52.354;4.970;2023-06-10T07:20:06;12.95;;;7.72;;
54171;SDS011;40076;52.354;4.970;2023-06-10T07:22:32;10.32;;;6.90;;
54171;SDS011;40076;52.354;4.970;2023-06-10T07:24:57;12.23;;;7.32;;
54171;SDS011;40076;52.354;4.970;2023-06-10T07:27:23;10.68;;;6.93;;
54171;SDS011;40076;52.354;4.970;2023-06-10T07:29:48;12.40;;;6.80;;
54171;SDS011;40076;52.354;4.970;2023-06-10T07:32:14;12.18;;;7.38;;
54171;SDS011;40076;52.354;4.970;2023-06-10T07:34:39;12.68;;;7.65;;
54171;SDS011;40076;52.354;4.970;2023-06-10T07:37:04;11.90;;;7.28;;
54171;SDS011;40076;52.354;4.970;2023-06-10T07:39:30;11.88;;;7.07;;
54171;SDS011;40076;52.354;4.970;2023-06-10T07:41:55;12.13;;;7.43;;
54171;SDS011;40076;52.354;4.970;2023-06-10T07:44:22;12.20;;;6.63;;
54171;SDS011;40076;52.354;4.970;2023-06-10T07:46:48;11.85;;;6.75;;
54171;SDS011;40076;52.354;4.970;2023-06-10T07:49:13;10.35;;;6.43;;
54171;SDS011;40076;52.354;4.970;2023-06-10T07:51:38;11.57;;;6.60;;
54171;SDS011;40076;52.354;4.970;2023-06-10T07:54:04;12.77;;;7.40;;
54171;SDS011;40076;52.354;4.970;2023-06-10T07:56:29;10.90;;;6.68;;
54171;SDS011;40076;52.354;4.970;2023-06-10T07:58:55;11.95;;;7.05;;
54171;SDS011;40076;52.354;4.970;2023-06-10T08:01:22;11.75;;;6.82;;
54171;SDS011;40076;52.354;4.970;2023-06-10T08:03:48;16.38;;;7.18;;
54171;SDS011;40076;52.354;4.970;2023-06-10T08:06:13;14.52;;;7.18;;
54171;SDS011;40076;52.354;4.970;2023-06-10T08:08:39;10.88;;;7.28;;
54171;SDS011;40076;52.354;4.970;2023-06-10T08:11:08;14.70;;;7.57;;
54171;SDS011;40076;52.354;4.970;2023-06-10T08:13:35;11.48;;;6.70;;
54171;SDS011;40076;52.354;4.970;2023-06-10T08:16:01;12.68;;;6.50;;
54171;SDS011;40076;52.354;4.970;2023-06-10T08:18:26;12.88;;;6.85;;
54171;SDS011;40076;52.354;4.970;2023-06-10T08:20:51;15.20;;;7.32;;
54171;SDS011;40076;52.354;4.970;2023-06-10T08:23:17;12.65;;;6.95;;
54171;SDS011;40076;52.354;4.970;2023-06-10T08:25:42;12.75;;;7.50;;
54171;SDS011;40076;52.354;4.970;2023-06-10T08:28:07;11.52;;;7.05;;
54171;SDS011;40076;52.354;4.970;2023-06-10T08:30:33;12.50;;;7.03;;
54171;SDS011;40076;52.354;4.970;2023-06-10T08:32:59;11.25;;;6.97;;
54171;SDS011;40076;52.354;4.970;2023-06-10T08:35:24;10.68;;;6.90;;
54171;SDS011;40076;52.354;4.970;2023-06-10T08:37:51;12.80;;;7.22;;
54171;SDS011;40076;52.354;4.970;2023-06-10T08:40:16;14.13;;;6.55;;
54171;SDS011;40076;52.354;4.970;2023-06-10T08:45:07;10.00;;;6.47;;
54171;SDS011;40076;52.354;4.970;2023-06-10T08:47:37;14.07;;;6.78;;
54171;SDS011;40076;52.354;4.970;2023-06-10T08:50:07;10.50;;;6.47;;
54171;SDS011;40076;52.354;4.970;2023-06-10T08:52:36;10.32;;;6.57;;
54171;SDS011;40076;52.354;4.970;2023-06-10T08:55:04;8.60;;;6.22;;
54171;SDS011;40076;52.354;4.970;2023-06-10T08:57:35;12.30;;;6.95;;
54171;SDS011;40076;52.354;4.970;2023-06-10T09:00:01;9.88;;;6.25;;
54171;SDS011;40076;52.354;4.970;2023-06-10T09:02:28;10.50;;;7.15;;
54171;SDS011;40076;52.354;4.970;2023-06-10T09:04:54;12.70;;;7.22;;
54171;SDS011;40076;52.354;4.970;2023-06-10T09:07:21;10.15;;;6.32;;
54171;SDS011;40076;52.354;4.970;2023-06-10T09:09:48;10.88;;;6.53;;
54171;SDS011;40076;52.354;4.970;2023-06-10T09:12:14;12.25;;;6.55;;
54171;SDS011;40076;52.354;4.970;2023-06-10T09:14:39;13.18;;;6.53;;
54171;SDS011;40076;52.354;4.970;2023-06-10T09:17:06;13.80;;;6.75;;
54171;SDS011;40076;52.354;4.970;2023-06-10T09:19:31;11.25;;;6.25;;
54171;SDS011;40076;52.354;4.970;2023-06-10T09:21:57;11.32;;;6.55;;
54171;SDS011;40076;52.354;4.970;2023-06-10T09:24:23;11.68;;;6.88;;
54171;SDS011;40076;52.354;4.970;2023-06-10T09:26:49;11.45;;;7.75;;
54171;SDS011;40076;52.354;4.970;2023-06-10T09:29:16;10.90;;;5.93;;
54171;SDS011;40076;52.354;4.970;2023-06-10T09:31:43;12.35;;;7.13;;
54171;SDS011;40076;52.354;4.970;2023-06-10T09:34:12;13.43;;;6.78;;
54171;SDS011;40076;52.354;4.970;2023-06-10T09:36:39;15.85;;;6.60;;
54171;SDS011;40076;52.354;4.970;2023-06-10T09:39:06;11.93;;;6.53;;
54171;SDS011;40076;52.354;4.970;2023-06-10T09:41:40;9.43;;;6.90;;
54171;SDS011;40076;52.354;4.970;2023-06-10T09:44:13;12.55;;;6.90;;
54171;SDS011;40076;52.354;4.970;2023-06-10T09:46:40;15.05;;;6.25;;
54171;SDS011;40076;52.354;4.970;2023-06-10T09:49:06;11.63;;;6.28;;
54171;SDS011;40076;52.354;4.970;2023-06-10T09:51:32;9.18;;;5.75;;
54171;SDS011;40076;52.354;4.970;2023-06-10T09:53:57;13.63;;;5.88;;
54171;SDS011;40076;52.354;4.970;2023-06-10T09:56:34;9.73;;;6.05;;
54171;SDS011;40076;52.354;4.970;2023-06-10T09:59:00;8.55;;;5.80;;
54171;SDS011;40076;52.354;4.970;2023-06-10T10:01:27;10.00;;;6.18;;
54171;SDS011;40076;52.354;4.970;2023-06-10T10:03:53;10.98;;;6.20;;
54171;SDS011;40076;52.354;4.970;2023-06-10T10:06:19;10.18;;;5.97;;
54171;SDS011;40076;52.354;4.970;2023-06-10T10:08:46;11.13;;;5.82;;
54171;SDS011;40076;52.354;4.970;2023-06-10T10:11:14;10.60;;;6.13;;
54171;SDS011;40076;52.354;4.970;2023-06-10T10:13:42;9.95;;;6.50;;
54171;SDS011;40076;52.354;4.970;2023-06-10T10:16:11;13.13;;;5.88;;
54171;SDS011;40076;52.354;4.970;2023-06-10T10:18:41;10.00;;;5.75;;
54171;SDS011;40076;52.354;4.970;2023-06-10T10:21:14;10.65;;;5.97;;
54171;SDS011;40076;52.354;4.970;2023-06-10T10:26:19;10.98;;;5.45;;
54171;SDS011;40076;52.354;4.970;2023-06-10T10:28:58;11.95;;;5.57;;
54171;SDS011;40076;52.354;4.970;2023-06-10T10:31:27;9.93;;;5.60;;
54171;SDS011;40076;52.354;4.970;2023-06-10T10:33:58;7.55;;;5.55;;
54171;SDS011;40076;52.354;4.970;2023-06-10T10:36:24;11.52;;;5.95;;
54171;SDS011;40076;52.354;4.970;2023-06-10T10:38:50;8.20;;;5.85;;
54171;SDS011;40076;52.354;4.970;2023-06-10T10:41:16;10.90;;;5.43;;
54171;SDS011;40076;52.354;4.970;2023-06-10T10:43:43;11.65;;;5.47;;
54171;SDS011;40076;52.354;4.970;2023-06-10T10:46:13;10.25;;;5.60;;
54171;SDS011;40076;52.354;4.970;2023-06-10T10:48:39;10.25;;;5.30;;
54171;SDS011;40076;52.354;4.970;2023-06-10T10:51:08;10.25;;;5.68;;
54171;SDS011;40076;52.354;4.970;2023-06-10T10:53:39;9.55;;;5.55;;
54171;SDS011;40076;52.354;4.970;2023-06-10T10:56:14;12.77;;;5.25;;
54171;SDS011;40076;52.354;4.970;2023-06-10T10:58:43;9.05;;;5.55;;
54171;SDS011;40076;52.354;4.970;2023-06-10T11:01:28;11.90;;;5.57;;
54171;SDS011;40076;52.354;4.970;2023-06-10T11:04:06;12.68;;;6.07;;
54171;SDS011;40076;52.354;4.970;2023-06-10T11:06:32;9.32;;;4.93;;
54171;SDS011;40076;52.354;4.970;2023-06-10T11:08:57;11.10;;;5.40;;
54171;SDS011;40076;52.354;4.970;2023-06-10T11:11:25;12.07;;;5.82;;
54171;SDS011;40076;52.354;4.970;2023-06-10T11:16:38;12.13;;;5.15;;
54171;SDS011;40076;52.354;4.970;2023-06-10T11:19:05;9.68;;;5.03;;
54171;SDS011;40076;52.354;4.970;2023-06-10T11:21:30;8.80;;;5.03;;
54171;SDS011;40076;52.354;4.970;2023-06-10T11:23:57;10.32;;;5.10;;
54171;SDS011;40076;52.354;4.970;2023-06-10T11:31:21;8.43;;;4.73;;
54171;SDS011;40076;52.354;4.970;2023-06-10T11:33:50;10.93;;;4.63;;
54171;SDS011;40076;52.354;4.970;2023-06-10T11:36:17;11.15;;;4.65;;
54171;SDS011;40076;52.354;4.970;2023-06-10T11:38:43;11.48;;;4.45;;
54171;SDS011;40076;52.354;4.970;2023-06-10T11:41:08;9.88;;;4.85;;
54171;SDS011;40076;52.354;4.970;2023-06-10T11:43:36;9.85;;;4.97;;
54171;SDS011;40076;52.354;4.970;2023-06-10T11:46:01;9.80;;;5.38;;
54171;SDS011;40076;52.354;4.970;2023-06-10T11:48:27;8.43;;;4.18;;
54171;SDS011;40076;52.354;4.970;2023-06-10T11:50:55;13.00;;;5.13;;
54171;SDS011;40076;52.354;4.970;2023-06-10T11:53:20;10.60;;;4.60;;
54171;SDS011;40076;52.354;4.970;2023-06-10T11:55:46;9.68;;;4.38;;
54171;SDS011;40076;52.354;4.970;2023-06-10T11:58:16;9.02;;;5.03;;
54171;SDS011;40076;52.354;4.970;2023-06-10T12:00:53;9.52;;;4.43;;
54171;SDS011;40076;52.354;4.970;2023-06-10T12:03:21;8.13;;;4.80;;
54171;SDS011;40076;52.354;4.970;2023-06-10T12:06:05;7.50;;;4.68;;
54171;SDS011;40076;52.354;4.970;2023-06-10T12:08:32;12.87;;;4.93;;
54171;SDS011;40076;52.354;4.970;2023-06-10T12:10:58;12.50;;;4.95;;
54171;SDS011;40076;52.354;4.970;2023-06-10T12:13:27;10.50;;;4.35;;
54171;SDS011;40076;52.354;4.970;2023-06-10T12:15:53;8.57;;;4.82;;
54171;SDS011;40076;52.354;4.970;2023-06-10T12:18:22;12.73;;;5.30;;
54171;SDS011;40076;52.354;4.970;2023-06-10T12:20:48;9.38;;;4.93;;
54171;SDS011;40076;52.354;4.970;2023-06-10T12:23:15;9.63;;;4.80;;
54171;SDS011;40076;52.354;4.970;2023-06-10T12:25:51;8.75;;;5.20;;
54171;SDS011;40076;52.354;4.970;2023-06-10T12:28:23;10.70;;;4.55;;
54171;SDS011;40076;52.354;4.970;2023-06-10T12:30:50;7.45;;;4.68;;
54171;SDS011;40076;52.354;4.970;2023-06-10T12:33:19;10.48;;;4.90;;
54171;SDS011;40076;52.354;4.970;2023-06-10T12:35:49;11.73;;;4.85;;
54171;SDS011;40076;52.354;4.970;2023-06-10T12:38:21;10.18;;;4.72;;
54171;SDS011;40076;52.354;4.970;2023-06-10T12:40:47;7.95;;;4.68;;
54171;SDS011;40076;52.354;4.970;2023-06-10T12:43:13;6.82;;;4.38;;
54171;SDS011;40076;52.354;4.970;2023-06-10T12:45:44;8.77;;;4.70;;
54171;SDS011;40076;52.354;4.970;2023-06-10T12:48:10;9.18;;;4.60;;
54171;SDS011;40076;52.354;4.970;2023-06-10T12:50:41;8.80;;;4.28;;
54171;SDS011;40076;52.354;4.970;2023-06-10T12:53:07;10.32;;;4.50;;
54171;SDS011;40076;52.354;4.970;2023-06-10T12:55:33;9.43;;;4.90;;
54171;SDS011;40076;52.354;4.970;2023-06-10T12:57:59;10.93;;;5.00;;
54171;SDS011;40076;52.354;4.970;2023-06-10T13:00:25;8.43;;;5.07;;
54171;SDS011;40076;52.354;4.970;2023-06-10T13:02:53;8.48;;;4.82;;
54171;SDS011;40076;52.354;4.970;2023-06-10T13:05:19;8.30;;;4.65;;
54171;SDS011;40076;52.354;4.970;2023-06-10T13:07:45;9.23;;;4.40;;
54171;SDS011;40076;52.354;4.970;2023-06-10T13:10:11;6.95;;;4.85;;
54171;SDS011;40076;52.354;4.970;2023-06-10T13:12:41;8.20;;;4.10;;
54171;SDS011;40076;52.354;4.970;2023-06-10T13:15:07;7.10;;;4.30;;
54171;SDS011;40076;52.354;4.970;2023-06-10T13:17:33;7.10;;;4.57;;
54171;SDS011;40076;52.354;4.970;2023-06-10T13:19:59;12.20;;;4.72;;
54171;SDS011;40076;52.354;4.970;2023-06-10T13:22:24;8.90;;;4.35;;
54171;SDS011;40076;52.354;4.970;2023-06-10T13:24:51;6.40;;;4.80;;
54171;SDS011;40076;52.354;4.970;2023-06-10T13:27:16;9.32;;;4.63;;
54171;SDS011;40076;52.354;4.970;2023-06-10T13:29:42;8.60;;;4.65;;
54171;SDS011;40076;52.354;4.970;2023-06-10T13:32:07;7.05;;;4.43;;
54171;SDS011;40076;52.354;4.970;2023-06-10T13:34:33;7.90;;;4.40;;
54171;SDS011;40076;52.354;4.970;2023-06-10T13:36:58;7.57;;;4.20;;
54171;SDS011;40076;52.354;4.970;2023-06-10T13:39:24;6.85;;;4.80;;
54171;SDS011;40076;52.354;4.970;2023-06-10T13:41:49;7.60;;;4.32;;
54171;SDS011;40076;52.354;4.970;2023-06-10T13:44:14;9.10;;;4.70;;
54171;SDS011;40076;52.354;4.970;2023-06-10T13:46:40;9.32;;;4.40;;
54171;SDS011;40076;52.354;4.970;2023-06-10T13:49:05;7.85;;;4.65;;
54171;SDS011;40076;52.354;4.970;2023-06-10T13:51:30;8.47;;;4.90;;
54171;SDS011;40076;52.354;4.970;2023-06-10T13:53:56;6.53;;;4.47;;
54171;SDS011;40076;52.354;4.970;2023-06-10T13:56:22;8.63;;;4.43;;
54171;SDS011;40076;52.354;4.970;2023-06-10T13:58:47;9.25;;;5.13;;
54171;SDS011;40076;52.354;4.970;2023-06-10T14:01:13;6.53;;;4.47;;
54171;SDS011;40076;52.354;4.970;2023-06-10T14:03:38;8.18;;;4.45;;
54171;SDS011;40076;52.354;4.970;2023-06-10T14:06:03;5.95;;;3.95;;
54171;SDS011;40076;52.354;4.970;2023-06-10T14:08:29;6.55;;;4.80;;
54171;SDS011;40076;52.354;4.970;2023-06-10T14:10:54;8.40;;;4.50;;
54171;SDS011;40076;52.354;4.970;2023-06-10T14:13:20;8.23;;;4.37;;
54171;SDS011;40076;52.354;4.970;2023-06-10T14:15:45;8.37;;;5.00;;
54171;SDS011;40076;52.354;4.970;2023-06-10T14:18:11;8.32;;;4.40;;
54171;SDS011;40076;52.354;4.970;2023-06-10T14:20:36;6.75;;;4.55;;
54171;SDS011;40076;52.354;4.970;2023-06-10T14:23:02;8.70;;;4.53;;
54171;SDS011;40076;52.354;4.970;2023-06-10T14:25:27;8.75;;;4.38;;
54171;SDS011;40076;52.354;4.970;2023-06-10T14:27:53;8.00;;;4.85;;
54171;SDS011;40076;52.354;4.970;2023-06-10T14:30:18;9.02;;;4.25;;
54171;SDS011;40076;52.354;4.970;2023-06-10T14:32:43;8.45;;;4.13;;
54171;SDS011;40076;52.354;4.970;2023-06-10T14:35:09;8.10;;;4.20;;
54171;SDS011;40076;52.354;4.970;2023-06-10T14:37:35;6.43;;;4.32;;
54171;SDS011;40076;52.354;4.970;2023-06-10T14:40:00;6.68;;;3.72;;
54171;SDS011;40076;52.354;4.970;2023-06-10T14:42:25;6.35;;;4.18;;
54171;SDS011;40076;52.354;4.970;2023-06-10T14:44:50;12.48;;;3.92;;
54171;SDS011;40076;52.354;4.970;2023-06-10T14:47:16;7.38;;;4.13;;
54171;SDS011;40076;52.354;4.970;2023-06-10T14:49:41;7.22;;;4.03;;
54171;SDS011;40076;52.354;4.970;2023-06-10T14:52:07;7.35;;;4.30;;